createdAt,value
2019-01-04T00:00:30.157Z,15.47
2019-01-04T00:03:11.524Z,17.30
2019-01-04T00:05:52.689Z,15.70
2019-01-04T00:08:33.929Z,17.53
2019-01-04T00:11:13.248Z,15.47
2019-01-04T00:14:01.505Z,15.27
2019-01-04T00:16:42.652Z,17.83
2019-01-04T00:19:24.114Z,17.30
2019-01-04T00:22:05.200Z,15.93
2019-01-04T00:24:48.368Z,15.80
2019-01-04T00:27:29.595Z,17.90
2019-01-04T00:30:10.578Z,15.70
2019-01-04T00:32:51.315Z,16.00
2019-01-04T00:35:31.999Z,16.47
2019-01-04T00:38:12.517Z,17.93
2019-01-04T00:40:53.081Z,17.03
2019-01-04T00:43:33.844Z,16.90
2019-01-04T00:46:14.631Z,15.43
2019-01-04T00:48:55.334Z,15.40
2019-01-04T00:51:36.224Z,16.83
2019-01-04T00:54:17.197Z,16.40
2019-01-04T00:56:57.783Z,15.03
2019-01-04T00:59:38.218Z,17.33
2019-01-04T01:02:18.695Z,15.17
2019-01-04T01:04:59.691Z,16.73
2019-01-04T01:07:40.184Z,15.70
2019-01-04T01:10:21.405Z,17.23
2019-01-04T01:13:02.352Z,15.60
2019-01-04T01:15:42.963Z,16.20
2019-01-04T01:18:23.584Z,16.30
2019-01-04T01:21:04.136Z,17.70
2019-01-04T01:23:44.609Z,16.90
2019-01-04T01:26:25.454Z,15.07
2019-01-04T01:29:06.065Z,17.00
2019-01-04T01:31:48.185Z,17.90
2019-01-04T01:34:28.680Z,17.93
2019-01-04T01:37:09.565Z,16.17
2019-01-04T01:39:50.061Z,17.80
2019-01-04T01:42:31.213Z,17.57
2019-01-04T01:45:12.539Z,16.00
2019-01-04T01:47:53.904Z,17.87
2019-01-04T01:50:35.188Z,17.27
2019-01-04T01:53:15.931Z,17.50
2019-01-04T01:55:56.828Z,16.57
2019-01-04T01:58:37.808Z,16.67
2019-01-04T02:01:18.744Z,19.67
2019-01-04T02:03:59.423Z,19.47
2019-01-04T02:06:40.473Z,17.67
2019-01-04T02:09:21.045Z,19.00
2019-01-04T02:12:01.765Z,17.53
2019-01-04T02:14:42.117Z,18.87
2019-01-04T02:17:23.119Z,19.33
2019-01-04T02:20:04.422Z,18.40
2019-01-04T02:22:45.740Z,18.63
2019-01-04T02:25:26.417Z,16.53
2019-01-04T02:28:07.533Z,16.30
2019-01-04T02:30:50.233Z,16.73
2019-01-04T02:33:31.090Z,16.53
2019-01-04T02:36:10.305Z,15.60
2019-01-04T02:47:45.006Z,16.97
2019-01-04T02:53:27.617Z,15.07
2019-01-04T03:07:52.048Z,14.43
2019-01-04T03:13:34.623Z,14.90
2019-01-04T03:16:15.096Z,14.07
2019-01-04T03:18:55.882Z,13.37
2019-01-04T03:21:36.457Z,15.23
2019-01-04T03:24:17.004Z,14.30
2019-01-04T03:26:57.820Z,13.40
2019-01-04T03:29:38.260Z,12.50
2019-01-04T03:32:19.018Z,13.90
2019-01-04T03:35:00.286Z,15.13
2019-01-04T03:37:40.793Z,13.57
2019-01-04T03:40:22.156Z,13.03
2019-01-04T03:43:02.982Z,14.23
2019-01-04T03:45:43.552Z,13.47
2019-01-04T03:48:24.300Z,13.20
2019-01-04T03:51:05.084Z,12.07
2019-01-04T03:53:45.813Z,13.43
2019-01-04T03:56:26.740Z,13.50
2019-01-04T03:59:07.252Z,14.03
2019-01-04T04:01:48.181Z,15.10
2019-01-04T04:04:29.007Z,13.67
2019-01-04T04:07:09.643Z,13.27
2019-01-04T04:09:52.080Z,13.10
2019-01-04T04:12:32.992Z,12.70
2019-01-04T04:15:13.555Z,12.90
2019-01-04T04:17:54.687Z,12.00
2019-01-04T04:20:35.204Z,13.40
2019-01-04T04:23:16.073Z,13.63
2019-01-04T04:25:57.233Z,13.47
2019-01-04T04:28:38.566Z,13.30
2019-01-04T04:31:19.173Z,13.57
2019-01-04T04:34:00.274Z,15.27
2019-01-04T04:36:40.969Z,13.30
2019-01-04T04:39:21.456Z,12.30
2019-01-04T04:42:02.344Z,14.93
2019-01-04T04:44:43.565Z,13.50
2019-01-04T04:47:24.540Z,12.50
2019-01-04T04:50:05.026Z,13.07
2019-01-04T04:52:46.250Z,12.90
2019-01-04T04:55:26.915Z,14.40
2019-01-04T04:58:06.233Z,14.80
2019-01-04T05:03:48.597Z,13.70
2019-01-04T05:06:36.805Z,14.87
2019-01-04T05:12:39.692Z,14.23
2019-01-04T05:15:27.915Z,13.70
2019-01-04T05:18:16.139Z,13.37
2019-01-04T05:23:58.014Z,13.90
2019-01-04T05:29:40.573Z,15.10
2019-01-04T05:38:31.400Z,14.50
2019-01-04T05:41:19.636Z,17.80
2019-01-04T05:44:00.144Z,14.53
2019-01-04T05:46:41.302Z,15.47
2019-01-04T05:49:21.744Z,14.40
2019-01-04T05:52:02.196Z,14.77
2019-01-04T05:54:42.988Z,12.40
2019-01-04T05:57:24.356Z,14.20
2019-01-04T06:00:05.958Z,13.50
2019-01-04T06:02:46.819Z,15.40
2019-01-04T06:05:27.402Z,15.20
2019-01-04T06:08:08.481Z,15.50
2019-01-04T06:10:49.872Z,14.73
2019-01-04T06:13:30.353Z,13.77
2019-01-04T06:16:10.817Z,14.93
2019-01-04T06:18:51.261Z,13.30
2019-01-04T06:21:32.325Z,12.93
2019-01-04T06:24:13.268Z,13.30
2019-01-04T06:26:55.617Z,13.97
2019-01-04T06:29:36.880Z,12.67
2019-01-04T06:32:17.470Z,12.93
2019-01-04T06:34:58.581Z,14.30
2019-01-04T06:37:39.539Z,13.00
2019-01-04T06:40:20.798Z,13.93
2019-01-04T06:43:01.876Z,16.30
2019-01-04T06:45:43.191Z,14.20
2019-01-04T06:48:22.564Z,13.93
2019-01-04T06:51:10.812Z,13.73
2019-01-04T06:57:06.493Z,14.27
2019-01-04T07:05:57.781Z,14.70
2019-01-04T07:08:46.104Z,14.97
2019-01-04T07:14:28.306Z,14.60
2019-01-04T07:28:46.133Z,14.67
2019-01-04T07:31:25.535Z,15.27
2019-01-04T07:34:13.776Z,15.47
2019-01-04T07:37:02.041Z,14.97
2019-01-04T07:39:50.325Z,16.37
2019-01-04T07:48:25.937Z,16.00
2019-01-04T07:51:07.179Z,18.97
2019-01-04T07:53:47.656Z,15.30
2019-01-04T07:56:28.962Z,15.90
2019-01-04T07:59:09.777Z,16.57
2019-01-04T08:01:50.980Z,15.13
2019-01-04T08:04:31.924Z,13.90
2019-01-04T08:07:12.867Z,13.73
2019-01-04T08:09:53.973Z,13.77
2019-01-04T08:12:35.142Z,15.40
2019-01-04T08:15:16.045Z,15.03
2019-01-04T08:17:57.369Z,15.40
2019-01-04T08:20:37.904Z,15.93
2019-01-04T08:23:18.932Z,16.60
2019-01-04T08:25:59.889Z,14.60
2019-01-04T08:28:41.121Z,14.63
2019-01-04T08:31:22.325Z,14.60
2019-01-04T08:34:03.644Z,15.33
2019-01-04T08:36:44.453Z,15.00
2019-01-04T08:39:25.385Z,12.90
2019-01-04T08:42:06.393Z,12.70
2019-01-04T08:44:47.377Z,13.00
2019-01-04T08:47:28.403Z,14.80
2019-01-04T08:50:09.333Z,15.20
2019-01-04T08:52:50.088Z,13.83
2019-01-04T08:55:31.370Z,14.40
2019-01-04T08:58:12.151Z,14.00
2019-01-04T09:00:52.857Z,13.30
2019-01-04T09:03:33.815Z,13.93
2019-01-04T09:06:14.346Z,11.50
2019-01-04T09:08:54.736Z,13.20
2019-01-04T09:11:35.880Z,13.23
2019-01-04T09:14:17.225Z,15.73
2019-01-04T09:17:00.121Z,12.80
2019-01-04T09:19:41.203Z,13.90
2019-01-04T09:22:21.765Z,13.47
2019-01-04T09:25:02.754Z,14.10
2019-01-04T09:27:43.332Z,15.20
2019-01-04T09:30:24.254Z,15.00
2019-01-04T09:33:04.820Z,14.27
2019-01-04T09:35:45.517Z,14.47
2019-01-04T09:38:26.917Z,14.97
2019-01-04T09:41:07.609Z,14.60
2019-01-04T09:43:48.203Z,13.60
2019-01-04T09:46:28.974Z,13.40
2019-01-04T09:49:09.461Z,14.03
2019-01-04T09:51:50.660Z,13.00
2019-01-04T09:54:31.390Z,12.97
2019-01-04T09:57:12.741Z,12.07
2019-01-04T09:59:54.745Z,11.33
2019-01-04T10:02:36.088Z,13.23
2019-01-04T10:05:16.593Z,13.60
2019-01-04T10:07:57.934Z,12.60
2019-01-04T10:10:38.357Z,13.10
2019-01-04T10:13:19.459Z,12.80
2019-01-04T10:16:00.213Z,13.80
2019-01-04T10:18:41.069Z,12.90
2019-01-04T10:21:21.746Z,11.77
2019-01-04T10:24:01.074Z,12.70
2019-01-04T10:26:49.333Z,13.10
2019-01-04T10:29:37.856Z,11.70
2019-01-04T10:32:26.184Z,12.20
2019-01-04T10:38:21.888Z,11.60
2019-01-04T10:41:10.153Z,12.60
2019-01-04T10:43:58.423Z,12.07
2019-01-04T10:46:46.708Z,11.30
2019-01-04T10:49:34.966Z,12.53
2019-01-04T10:52:24.099Z,12.03
2019-01-04T10:55:13.277Z,12.00
2019-01-04T11:09:45.528Z,10.27
2019-01-04T11:12:26.570Z,9.77
2019-01-04T11:15:07.881Z,11.50
2019-01-04T11:17:48.527Z,10.90
2019-01-04T11:20:34.893Z,12.40
2019-01-04T11:23:15.781Z,12.07
2019-01-04T11:25:56.514Z,11.37
2019-01-04T11:28:37.374Z,12.90
2019-01-04T11:31:19.849Z,11.37
2019-01-04T11:34:01.163Z,12.23
2019-01-04T11:36:42.556Z,11.13
2019-01-04T11:39:23.280Z,10.60
2019-01-04T11:42:04.774Z,10.23
2019-01-04T11:44:46.000Z,10.27
2019-01-04T11:47:26.589Z,10.63
2019-01-04T11:50:07.857Z,9.70
2019-01-04T11:52:48.933Z,9.17
2019-01-04T11:55:29.587Z,9.83
2019-01-04T11:58:10.006Z,9.70
2019-01-04T12:00:50.780Z,10.50
2019-01-04T12:03:32.095Z,9.90
2019-01-04T12:06:12.657Z,10.73
2019-01-04T12:08:53.259Z,9.53
2019-01-04T12:11:32.773Z,9.60
2019-01-04T12:20:22.970Z,9.33
2019-01-04T12:28:58.619Z,10.07
2019-01-04T12:34:41.081Z,10.03
2019-01-04T12:43:30.740Z,10.50
2019-01-04T12:49:12.781Z,9.20
2019-01-04T12:55:03.172Z,9.17
2019-01-04T12:57:44.106Z,8.80
2019-01-04T13:00:23.514Z,10.80
2019-01-04T13:03:11.769Z,9.47
2019-01-04T13:08:54.532Z,9.00
2019-01-04T13:14:43.912Z,9.20
2019-01-04T13:17:24.997Z,9.80
2019-01-04T13:20:05.456Z,10.37
2019-01-04T13:22:46.103Z,10.60
2019-01-04T13:25:27.366Z,9.47
2019-01-04T13:28:08.452Z,10.93
2019-01-04T13:30:49.451Z,10.30
2019-01-04T13:33:30.100Z,10.33
2019-01-04T13:36:13.026Z,10.00
2019-01-04T13:38:53.980Z,10.50
2019-01-04T13:41:34.915Z,10.33
2019-01-04T13:44:15.796Z,10.67
2019-01-04T13:46:56.713Z,8.67
2019-01-04T13:49:37.607Z,10.83
2019-01-04T13:52:18.073Z,10.80
2019-01-04T13:54:58.981Z,10.20
2019-01-04T13:57:40.009Z,9.50
2019-01-04T14:00:22.105Z,8.93
2019-01-04T14:03:03.632Z,11.07
2019-01-04T14:05:43.042Z,9.23
2019-01-04T14:17:06.664Z,9.77
2019-01-04T14:19:45.909Z,9.50
2019-01-04T14:28:21.408Z,8.97
2019-01-04T14:34:17.095Z,8.37
2019-01-04T14:40:12.857Z,8.77
2019-01-04T14:43:01.293Z,7.70
2019-01-04T14:45:49.539Z,8.17
2019-01-04T14:51:31.373Z,9.10
2019-01-04T15:06:16.401Z,9.23
2019-01-04T15:15:13.905Z,9.90
2019-01-04T15:17:54.354Z,9.27
2019-01-04T15:20:34.969Z,8.73
2019-01-04T15:23:16.119Z,9.27
2019-01-04T15:25:56.794Z,9.00
2019-01-04T15:28:37.299Z,8.40
2019-01-04T15:31:17.959Z,8.20
2019-01-04T15:33:58.612Z,8.43
2019-01-04T15:36:39.933Z,8.50
2019-01-04T15:39:20.498Z,8.17
2019-01-04T15:42:01.151Z,8.20
2019-01-04T15:44:41.975Z,9.07
2019-01-04T15:47:22.877Z,8.10
2019-01-04T15:50:03.747Z,8.33
2019-01-04T15:52:45.940Z,8.27
2019-01-04T15:55:27.084Z,8.77
2019-01-04T15:58:08.093Z,9.10
2019-01-04T16:00:48.709Z,8.03
2019-01-04T16:03:29.588Z,8.03
2019-01-04T16:06:10.473Z,9.07
2019-01-04T16:08:51.725Z,9.57
2019-01-04T16:11:32.110Z,7.97
2019-01-04T16:14:12.870Z,8.40
2019-01-04T16:16:54.168Z,8.07
2019-01-04T16:19:35.248Z,7.90
2019-01-04T16:22:15.792Z,7.90
2019-01-04T16:24:56.310Z,8.43
2019-01-04T16:27:36.968Z,7.50
2019-01-04T16:30:17.978Z,7.30
2019-01-04T16:32:59.325Z,8.43
2019-01-04T16:35:39.786Z,8.87
2019-01-04T16:38:20.772Z,9.03
2019-01-04T16:41:01.789Z,8.00
2019-01-04T16:43:42.448Z,10.00
2019-01-04T16:46:23.075Z,7.80
2019-01-04T16:49:03.605Z,8.70
2019-01-04T16:51:44.567Z,8.80
2019-01-04T16:54:25.208Z,8.67
2019-01-04T16:57:06.456Z,8.90
2019-01-04T16:59:45.856Z,9.10
2019-01-04T17:02:34.116Z,10.77
2019-01-04T17:11:09.877Z,8.60
2019-01-04T17:13:58.138Z,9.47
2019-01-04T17:19:46.241Z,8.67
2019-01-04T17:22:27.597Z,8.50
2019-01-04T17:25:10.954Z,7.60
2019-01-04T17:27:52.250Z,8.60
2019-01-04T17:30:33.205Z,8.37
2019-01-04T17:33:12.450Z,8.60
2019-01-04T17:36:00.691Z,9.13
2019-01-04T17:47:44.324Z,10.80
2019-01-04T17:53:26.292Z,10.40
2019-01-04T18:05:18.050Z,8.80
2019-01-04T18:08:06.280Z,8.40
2019-01-04T18:14:03.517Z,7.93
2019-01-04T18:16:51.903Z,8.20
2019-01-04T18:19:32.380Z,8.60
2019-01-04T18:22:13.480Z,7.67
2019-01-04T18:24:54.767Z,7.77
2019-01-04T18:27:35.589Z,7.30
2019-01-04T18:30:16.511Z,7.50
2019-01-04T18:32:57.009Z,7.77
2019-01-04T18:35:37.610Z,8.33
2019-01-04T18:38:18.994Z,7.20
2019-01-04T18:40:59.521Z,6.23
2019-01-04T18:43:40.026Z,5.77
2019-01-04T18:46:23.562Z,6.07
2019-01-04T18:49:04.734Z,6.20
2019-01-04T18:51:45.229Z,5.83
2019-01-04T18:54:27.405Z,6.50
2019-01-04T18:57:08.499Z,6.50
2019-01-04T18:59:49.131Z,6.57
2019-01-04T19:02:30.281Z,6.27
2019-01-04T19:05:11.049Z,7.43
2019-01-04T19:07:51.643Z,7.23
2019-01-04T19:10:31.049Z,6.97
2019-01-04T19:13:19.389Z,7.27
2019-01-04T19:18:54.662Z,7.30
2019-01-04T19:21:35.526Z,7.00
2019-01-04T19:24:16.753Z,7.20
2019-01-04T19:26:57.650Z,7.53
2019-01-04T19:29:38.436Z,7.23
2019-01-04T19:32:19.343Z,7.80
2019-01-04T19:35:00.745Z,7.20
2019-01-04T19:37:42.104Z,8.40
2019-01-04T19:40:23.516Z,7.47
2019-01-04T19:43:04.136Z,7.20
2019-01-04T19:45:45.094Z,7.00
2019-01-04T19:48:24.537Z,8.47
2019-01-04T19:51:12.845Z,7.90
2019-01-04T19:57:08.534Z,7.40
2019-01-04T19:59:56.766Z,10.07
2019-01-04T20:02:45.001Z,9.83
2019-01-04T20:09:42.841Z,8.63
2019-01-04T20:13:09.156Z,8.80
2019-01-04T20:16:35.466Z,9.47
2019-01-04T20:19:35.549Z,9.70
2019-01-04T20:22:35.825Z,8.73
2019-01-04T20:25:36.001Z,9.53
2019-01-04T20:28:36.249Z,9.90
2019-01-04T20:31:36.559Z,10.30
2019-01-04T20:37:38.364Z,9.27
2019-01-04T20:40:38.676Z,9.17
2019-01-04T20:43:38.173Z,10.80
2019-01-04T20:46:37.651Z,10.33
2019-01-04T20:49:43.388Z,10.10
2019-01-04T20:52:43.439Z,9.73
2019-01-04T20:55:46.192Z,11.30
2019-01-04T20:58:45.652Z,10.70
2019-01-04T21:01:45.220Z,9.87
2019-01-04T21:04:44.773Z,10.30
2019-01-04T21:07:44.468Z,9.50
2019-01-04T21:16:52.521Z,11.50
2019-01-04T21:19:52.821Z,10.97
2019-01-04T21:26:01.004Z,11.07
2019-01-04T21:29:08.447Z,9.87
2019-01-04T21:32:15.664Z,11.87
2019-01-04T21:35:23.066Z,9.70
2019-01-04T21:38:30.301Z,9.70
2019-01-04T21:41:37.554Z,9.77
2019-01-04T21:44:44.877Z,12.00
2019-01-04T21:47:52.115Z,11.70
2019-01-04T21:50:59.325Z,12.27
2019-01-04T21:54:06.558Z,10.33
2019-01-04T21:57:13.858Z,9.37
2019-01-04T22:00:21.143Z,9.50
2019-01-04T22:03:27.153Z,9.20
2019-01-04T22:06:27.088Z,10.20
2019-01-04T22:09:26.722Z,10.60
2019-01-04T22:12:32.925Z,10.63
2019-01-04T22:18:33.846Z,9.50
2019-01-04T22:21:34.029Z,9.63
2019-01-04T22:24:33.426Z,8.13
2019-01-04T22:27:32.935Z,11.43
2019-01-04T22:30:32.388Z,9.47
2019-01-04T22:36:47.957Z,8.37
2019-01-04T22:39:48.222Z,8.80
2019-01-04T22:42:47.749Z,9.03
2019-01-04T22:48:58.464Z,8.67
2019-01-04T22:51:57.981Z,8.10
2019-01-04T22:55:05.232Z,9.47
2019-01-04T22:58:12.446Z,8.60
2019-01-04T23:01:19.644Z,8.50
2019-01-04T23:04:26.852Z,9.60
2019-01-04T23:07:36.557Z,9.00
2019-01-04T23:10:43.821Z,8.47
2019-01-04T23:13:51.050Z,8.40
2019-01-04T23:16:58.317Z,8.20
2019-01-04T23:20:05.532Z,9.00
2019-01-04T23:23:05.723Z,8.57
2019-01-04T23:26:05.998Z,9.23
2019-01-04T23:29:05.528Z,7.53
2019-01-04T23:35:12.724Z,8.90
2019-01-04T23:38:12.480Z,7.80
2019-01-04T23:41:11.944Z,8.30
2019-01-04T23:44:12.278Z,9.37
2019-01-04T23:47:11.802Z,8.93
2019-01-04T23:50:11.918Z,8.43
2019-01-04T23:53:12.055Z,8.60
2019-01-04T23:56:12.271Z,7.80
2019-01-04T23:59:12.142Z,9.00
